Time;durP1;ratioP1;P1;durP2;ratioP2;P2;SDS_P1;SDS_P2;PMS_P1;PMS_P2;Temp;Humidity;BMP_temperature;BMP_pressure;BME280_temperature;BME280_humidity;BME280_pressure;Samples;Min_cycle;Max_cycle;Signal;HPM_P1;HPM_P2
2022/06/26 00:02:36;;;;;;;;;;;;;;;28.61;39.99;94227.63;4914614;29;8851;-62
2022/06/26 00:05:20;;;;;;;;;;;;;;;28.61;40.29;94233.94;4906494;29;6861;-62
2022/06/26 00:08:02;;;;;;;;;;;;;;;28.59;40.72;94230.94;4913302;29;8154;-62
2022/06/26 00:10:45;;;;;;;;;;;;;;;28.57;40.05;94236.28;4914400;29;6972;-62
2022/06/26 00:13:15;;;;;;;;;;;;;;;28.57;39.97;94233.50;4897542;29;9082;-62
2022/06/26 00:15:54;;;;;;;;;;;;;;;28.54;40.15;94234.53;4909700;29;7443;-62
2022/06/26 00:18:37;;;;;;;;;;;;;;;28.55;40.35;94236.03;4911887;29;9233;-62
2022/06/26 00:21:06;;;;;;;;;;;;;;;28.54;40.02;94229.00;4898875;29;7166;-62
2022/06/26 00:23:42;;;;;;;;;;;;;;;28.53;40.06;94233.06;4913845;29;7066;-62
2022/06/26 00:26:22;;;;;;;;;;;;;;;28.52;40.64;94226.03;4914897;29;7051;-62
2022/06/26 00:29:00;;;;;;;;;;;;;;;28.52;39.98;94223.25;4900688;29;7148;-62
2022/06/26 00:31:39;;;;;;;;;;;;;;;28.54;40.04;94214.41;4898034;29;9075;-62
2022/06/26 00:34:24;;;;;;;;;;;;;;;28.52;40.01;94214.97;4915627;29;8385;-62
2022/06/26 00:36:50;;;;;;;;;;;;;;;28.50;40.04;94211.97;4898008;29;7191;-62
2022/06/26 00:39:16;;;;;;;;;;;;;;;28.51;40.15;94212.75;4955630;28;7331;-62
2022/06/26 00:41:44;;;;;;;;;;;;;;;28.51;40.19;94196.13;4987805;28;7450;-62
2022/06/26 00:44:21;;;;;;;;;;;;;;;28.50;39.85;94200.91;4986412;28;7426;-62
2022/06/26 00:46:50;;;;;;;;;;;;;;;28.49;39.94;94195.94;4985116;28;7256;-62
2022/06/26 00:49:20;;;;;;;;;;;;;;;28.48;39.70;94180.59;4989283;28;7252;-63
2022/06/26 00:52:00;;;;;;;;;;;;;;;28.47;39.97;94185.38;4988192;28;9388;-62
2022/06/26 00:54:30;;;;;;;;;;;;;;;28.47;39.93;94199.22;4989919;28;9046;-63
2022/06/26 00:57:08;;;;;;;;;;;;;;;28.45;39.95;94190.69;4968160;28;7118;-62
2022/06/26 00:59:36;;;;;;;;;;;;;;;28.46;40.28;94189.44;4980198;28;9058;-62
2022/06/26 01:02:03;;;;;;;;;;;;;;;28.43;39.77;94179.44;4983302;28;8903;-62
2022/06/26 01:04:29;;;;;;;;;;;;;;;28.43;40.05;94187.72;4987124;28;6981;-62
2022/06/26 01:06:55;;;;;;;;;;;;;;;28.40;40.35;94188.81;4970999;28;9321;-62
2022/06/26 01:09:21;;;;;;;;;;;;;;;28.41;40.09;94176.44;4970253;28;6969;-62
2022/06/26 01:11:50;;;;;;;;;;;;;;;28.42;40.10;94174.44;4985901;28;7386;-62
2022/06/26 01:14:21;;;;;;;;;;;;;;;28.42;39.88;94171.66;4981133;28;7058;-62
2022/06/26 01:17:00;;;;;;;;;;;;;;;28.40;40.54;94166.69;4986758;28;7283;-62
2022/06/26 01:19:37;;;;;;;;;;;;;;;28.40;40.22;94161.16;4982931;28;7234;-62
2022/06/26 01:22:09;;;;;;;;;;;;;;;28.42;40.08;94147.53;4989344;28;7071;-62
2022/06/26 01:24:35;;;;;;;;;;;;;;;28.43;40.05;94139.97;4985664;28;9109;-62
2022/06/26 01:27:17;;;;;;;;;;;;;;;28.41;40.05;94126.66;4987475;28;9325;-62
2022/06/26 01:29:54;;;;;;;;;;;;;;;28.41;40.17;94132.19;4972756;28;9551;-62
2022/06/26 01:32:24;;;;;;;;;;;;;;;28.39;40.42;94129.22;4967213;28;6965;-62
2022/06/26 01:34:50;;;;;;;;;;;;;;;28.41;40.51;94137.72;4974788;28;7977;-62
2022/06/26 01:37:31;;;;;;;;;;;;;;;28.41;40.38;94137.72;4987461;28;7201;-62
2022/06/26 01:40:29;;;;;;;;;;;;;;;28.40;40.24;94133.47;4964140;28;7259;-62
2022/06/26 01:42:55;;;;;;;;;;;;;;;28.41;40.47;94131.44;4907191;29;7190;-63
2022/06/26 01:45:21;;;;;;;;;;;;;;;28.40;40.07;94136.25;4896857;29;9078;-62
2022/06/26 01:47:47;;;;;;;;;;;;;;;28.41;40.10;94131.44;4895454;29;7632;-62
2022/06/26 01:50:21;;;;;;;;;;;;;;;28.42;40.17;94130.94;4909522;29;7337;-63
2022/06/26 01:52:56;;;;;;;;;;;;;;;28.43;40.15;94126.13;4904226;29;7268;-62
2022/06/26 01:55:24;;;;;;;;;;;;;;;28.41;40.45;94123.88;4913050;29;9103;-63
2022/06/26 01:57:52;;;;;;;;;;;;;;;28.41;40.38;94115.59;4897724;29;7085;-62
2022/06/26 02:00:19;;;;;;;;;;;;;;;28.40;40.47;94119.66;4902564;29;7453;-63
2022/06/26 02:03:03;;;;;;;;;;;;;;;28.41;40.28;94129.44;4905409;29;7340;-63
2022/06/26 02:05:38;;;;;;;;;;;;;;;28.41;40.60;94121.13;4904789;29;9153;-63
2022/06/26 02:08:05;;;;;;;;;;;;;;;28.40;40.34;94127.19;4902716;29;8717;-62
2022/06/26 02:13:42;;;;;;;;;;;;;;;28.41;40.43;94115.59;4909306;29;8862;-63
2022/06/26 02:16:19;;;;;;;;;;;;;;;28.40;40.38;94107.84;4910813;29;9408;-62
2022/06/26 02:18:56;;;;;;;;;;;;;;;28.42;39.97;94106.03;4915326;28;8887;-62
2022/06/26 02:22:08;;;;;;;;;;;;;;;28.41;40.15;94099.00;4972402;28;9227;-63
2022/06/26 02:24:36;;;;;;;;;;;;;;;28.43;40.45;94096.44;4915871;29;9032;-62
2022/06/26 02:27:02;;;;;;;;;;;;;;;28.41;40.40;94093.47;4912383;29;7272;-62
2022/06/26 02:29:38;;;;;;;;;;;;;;;28.43;40.40;94085.38;4906564;29;7233;-62
2022/06/26 02:32:06;;;;;;;;;;;;;;;28.43;40.45;94088.13;4904736;29;7309;-62
2022/06/26 02:34:36;;;;;;;;;;;;;;;28.47;40.55;94090.59;4897892;29;7226;-63
2022/06/26 02:37:03;;;;;;;;;;;;;;;28.50;40.05;94087.47;4928068;29;7296;-62
2022/06/26 02:39:29;;;;;;;;;;;;;;;28.51;40.35;94088.22;4907683;29;7151;-63
2022/06/26 02:41:56;;;;;;;;;;;;;;;28.48;39.93;94087.28;4913617;29;9080;-63
2022/06/26 02:44:24;;;;;;;;;;;;;;;28.47;40.47;94082.28;4909733;29;7187;-62
2022/06/26 02:46:50;;;;;;;;;;;;;;;28.45;40.33;94074.50;4908707;29;9049;-62
2022/06/26 02:49:19;;;;;;;;;;;;;;;28.43;40.39;94082.59;4907385;29;7437;-63
2022/06/26 02:51:44;;;;;;;;;;;;;;;28.45;40.34;94085.56;4920858;29;9403;-62
2022/06/26 02:54:13;;;;;;;;;;;;;;;28.44;40.45;94084.09;4920066;29;9399;-62
2022/06/26 02:56:41;;;;;;;;;;;;;;;28.43;40.53;94082.59;4910066;29;7240;-62
2022/06/26 02:59:07;;;;;;;;;;;;;;;28.41;40.16;94074.09;4899215;29;6983;-62
2022/06/26 03:01:35;;;;;;;;;;;;;;;28.41;40.54;94076.13;4944326;28;9174;-62
2022/06/26 03:04:02;;;;;;;;;;;;;;;28.45;40.27;94077.28;4967261;28;6992;-62
2022/06/26 03:06:28;;;;;;;;;;;;;;;28.47;40.53;94073.97;4982217;28;6982;-62
2022/06/26 03:08:55;;;;;;;;;;;;;;;28.50;40.15;94068.09;4966283;28;7046;-63
2022/06/26 03:11:27;;;;;;;;;;;;;;;28.50;40.30;94062.56;4984560;28;8638;-63
2022/06/26 03:13:55;;;;;;;;;;;;;;;28.51;40.52;94058.53;4977058;28;9402;-62
2022/06/26 03:16:23;;;;;;;;;;;;;;;28.50;39.64;94062.56;4984166;28;7035;-63
2022/06/26 03:18:49;;;;;;;;;;;;;;;28.50;39.67;94061.81;4987365;28;7652;-62
2022/06/26 03:21:17;;;;;;;;;;;;;;;28.51;40.19;94069.59;4981968;28;9212;-63
2022/06/26 03:24:03;;;;;;;;;;;;;;;28.52;40.18;94065.53;4989670;28;7781;-63
2022/06/26 03:26:38;;;;;;;;;;;;;;;28.54;40.02;94065.75;4977305;28;7251;-62
2022/06/26 03:29:07;;;;;;;;;;;;;;;28.53;40.06;94050.44;4987073;28;8740;-62
2022/06/26 03:31:46;;;;;;;;;;;;;;;28.54;39.78;94051.91;4986196;28;7045;-63
2022/06/26 03:34:27;;;;;;;;;;;;;;;28.55;40.01;94056.19;4982802;28;9753;-63
2022/06/26 03:37:02;;;;;;;;;;;;;;;28.55;40.01;94052.66;4974858;28;7423;-62
2022/06/26 03:39:38;;;;;;;;;;;;;;;28.53;40.23;94055.22;4990753;28;8416;-62
2022/06/26 03:42:07;;;;;;;;;;;;;;;28.55;40.24;94058.19;4976229;28;7877;-62
2022/06/26 03:44:33;;;;;;;;;;;;;;;28.57;40.61;94047.34;4991318;28;9615;-62
2022/06/26 03:47:01;;;;;;;;;;;;;;;28.57;40.22;94055.63;4988346;28;9141;-62
2022/06/26 03:49:29;;;;;;;;;;;;;;;28.55;40.20;94056.19;4972325;28;8844;-62
2022/06/26 03:52:03;;;;;;;;;;;;;;;28.54;40.12;94048.41;4990376;28;9235;-63
2022/06/26 03:54:30;;;;;;;;;;;;;;;28.55;40.13;94047.88;4989753;28;7256;-62
2022/06/26 03:57:01;;;;;;;;;;;;;;;28.55;40.28;94042.34;4990090;28;8516;-62
2022/06/26 03:59:34;;;;;;;;;;;;;;;28.55;40.35;94039.56;4988396;28;9075;-63
2022/06/26 04:02:04;;;;;;;;;;;;;;;28.53;40.32;94042.16;4987692;28;9504;-62
2022/06/26 04:04:30;;;;;;;;;;;;;;;28.54;40.12;94040.84;4990556;28;7052;-62
2022/06/26 04:06:58;;;;;;;;;;;;;;;28.53;40.26;94039.38;4989996;28;8232;-62
2022/06/26 04:09:24;;;;;;;;;;;;;;;28.55;40.17;94047.88;4987410;28;9097;-62
2022/06/26 04:11:50;;;;;;;;;;;;;;;28.53;40.14;94046.94;4968444;28;7184;-63
2022/06/26 04:14:18;;;;;;;;;;;;;;;28.50;40.49;94045.97;4988766;28;9821;-62
2022/06/26 04:16:46;;;;;;;;;;;;;;;28.52;40.41;94046.19;4982901;28;7150;-62
2022/06/26 04:19:15;;;;;;;;;;;;;;;28.51;40.24;94041.19;4988051;28;7632;-63
2022/06/26 04:21:52;;;;;;;;;;;;;;;28.50;40.37;94040.44;4967800;28;7507;-62
2022/06/26 04:24:17;;;;;;;;;;;;;;;28.49;40.13;94033.44;4986295;28;9400;-62
2022/06/26 04:26:43;;;;;;;;;;;;;;;28.47;40.22;94038.75;4983258;28;7219;-62
2022/06/26 04:29:11;;;;;;;;;;;;;;;28.45;40.68;94023.97;4988651;28;9233;-62
2022/06/26 04:31:37;;;;;;;;;;;;;;;28.46;39.96;94028.97;4988195;28;7246;-62
2022/06/26 04:34:06;;;;;;;;;;;;;;;28.47;40.73;94030.44;4973781;28;7014;-62
2022/06/26 04:36:32;;;;;;;;;;;;;;;28.48;40.22;94028.41;4989646;28;8786;-62
2022/06/26 04:38:58;;;;;;;;;;;;;;;28.49;40.44;94027.16;4977106;28;7126;-62
2022/06/26 04:41:34;;;;;;;;;;;;;;;28.45;40.00;94026.75;4982677;28;8785;-62
2022/06/26 04:44:10;;;;;;;;;;;;;;;28.45;40.53;94027.47;4986006;28;7321;-62
2022/06/26 04:46:40;;;;;;;;;;;;;;;28.44;40.56;94020.47;4966598;28;7447;-63
2022/06/26 04:49:13;;;;;;;;;;;;;;;28.45;40.50;94018.44;4990401;28;8586;-62
2022/06/26 04:51:59;;;;;;;;;;;;;;;28.41;40.76;94027.06;4974359;28;9061;-63
2022/06/26 04:54:43;;;;;;;;;;;;;;;28.40;40.76;94028.38;4985237;28;9498;-62
2022/06/26 04:57:29;;;;;;;;;;;;;;;28.41;40.72;94032.59;4989628;28;7250;-62
2022/06/26 04:59:55;;;;;;;;;;;;;;;28.39;40.54;94024.09;4992049;28;7166;-62
2022/06/26 05:02:21;;;;;;;;;;;;;;;28.38;40.64;94030.94;4984372;28;9067;-62
2022/06/26 05:04:46;;;;;;;;;;;;;;;28.40;40.78;94035.91;4987480;28;7001;-62
2022/06/26 05:07:14;;;;;;;;;;;;;;;28.37;40.83;94032.19;4983022;28;7235;-62
2022/06/26 05:09:40;;;;;;;;;;;;;;;28.34;40.86;94033.25;4975853;28;9258;-62
2022/06/26 05:12:06;;;;;;;;;;;;;;;28.35;40.96;94032.75;4984561;28;7369;-62
2022/06/26 05:14:32;;;;;;;;;;;;;;;28.34;40.95;94038.78;4963304;28;9111;-62
2022/06/26 05:17:00;;;;;;;;;;;;;;;28.35;41.33;94040.28;4984812;28;7245;-63
2022/06/26 05:19:29;;;;;;;;;;;;;;;28.34;41.10;94047.09;4985736;28;7279;-63
2022/06/26 05:21:57;;;;;;;;;;;;;;;28.35;40.86;94043.06;4984231;28;6992;-63
2022/06/26 05:24:23;;;;;;;;;;;;;;;28.36;40.98;94050.09;4969881;28;7004;-63
2022/06/26 05:26:49;;;;;;;;;;;;;;;28.35;40.85;94052.09;4984203;28;7489;-63
2022/06/26 05:29:17;;;;;;;;;;;;;;;28.35;41.09;94048.59;4984261;28;6871;-63
2022/06/26 05:31:43;;;;;;;;;;;;;;;28.36;41.34;94050.09;4980348;28;7163;-63
2022/06/26 05:34:09;;;;;;;;;;;;;;;28.33;41.30;94045.63;4984304;28;8645;-63
2022/06/26 05:36:35;;;;;;;;;;;;;;;28.34;41.58;94045.06;4969209;28;9107;-62
2022/06/26 05:39:03;;;;;;;;;;;;;;;28.34;41.34;94042.31;4983632;28;7228;-62
2022/06/26 05:41:29;;;;;;;;;;;;;;;28.33;41.35;94045.63;4986582;28;7238;-62
2022/06/26 05:43:55;;;;;;;;;;;;;;;28.32;41.52;94047.63;4969457;28;6972;-62
2022/06/26 05:46:23;;;;;;;;;;;;;;;28.33;41.83;94045.63;4963350;28;8686;-62
2022/06/26 05:48:49;;;;;;;;;;;;;;;28.34;41.19;94042.31;4967058;28;7188;-63
2022/06/26 05:51:17;;;;;;;;;;;;;;;28.34;41.62;94039.53;4984133;28;9192;-63
2022/06/26 05:53:43;;;;;;;;;;;;;;;28.35;41.62;94043.06;4969340;28;7256;-63
2022/06/26 05:56:11;;;;;;;;;;;;;;;28.33;41.57;94042.84;4983634;28;8959;-63
2022/06/26 05:58:38;;;;;;;;;;;;;;;28.34;41.49;94036.78;4971761;28;7222;-62
2022/06/26 06:01:09;;;;;;;;;;;;;;;28.35;41.51;94029.97;4972559;28;7327;-63
2022/06/26 06:03:48;;;;;;;;;;;;;;;28.36;41.43;94030.72;4986199;28;7261;-63
2022/06/26 06:06:13;;;;;;;;;;;;;;;28.36;40.88;94025.19;4985709;28;7549;-63
2022/06/26 06:08:54;;;;;;;;;;;;;;;28.37;41.42;94018.38;4974042;28;9158;-63
2022/06/26 06:11:26;;;;;;;;;;;;;;;28.35;41.63;94015.41;4973060;28;7159;-62
2022/06/26 06:13:58;;;;;;;;;;;;;;;28.35;41.88;94013.38;4987724;28;9474;-62
2022/06/26 06:16:25;;;;;;;;;;;;;;;28.36;41.18;94016.91;4981842;28;7254;-63
2022/06/26 06:19:06;;;;;;;;;;;;;;;28.35;41.72;94021.69;4973375;28;7267;-63
2022/06/26 06:21:38;;;;;;;;;;;;;;;28.34;41.82;94028.47;4970857;28;9408;-63
2022/06/26 06:24:24;;;;;;;;;;;;;;;28.32;41.53;94022.00;4990016;28;9537;-63
2022/06/26 06:27:03;;;;;;;;;;;;;;;28.34;41.95;94033.25;4979185;28;8540;-63
2022/06/26 06:29:49;;;;;;;;;;;;;;;28.35;41.53;94034.75;4983930;28;7275;-63
2022/06/26 06:32:17;;;;;;;;;;;;;;;28.34;41.96;94038.78;4984119;28;8474;-63
2022/06/26 06:34:45;;;;;;;;;;;;;;;28.33;41.94;94029.78;4967416;28;8720;-62
2022/06/26 06:37:14;;;;;;;;;;;;;;;28.34;42.03;94030.50;4963425;28;8776;-63
2022/06/26 06:39:40;;;;;;;;;;;;;;;28.35;42.15;94032.00;4977189;28;7273;-62
2022/06/26 06:42:06;;;;;;;;;;;;;;;28.35;42.11;94045.81;4966097;28;6969;-63
2022/06/26 06:44:32;;;;;;;;;;;;;;;28.34;41.74;94036.03;4975569;28;7028;-63
2022/06/26 06:46:58;;;;;;;;;;;;;;;28.34;41.95;94039.53;4980284;28;7259;-63
2022/06/26 06:49:26;;;;;;;;;;;;;;;28.35;41.97;94029.22;4973377;28;7448;-63
2022/06/26 06:51:57;;;;;;;;;;;;;;;28.36;42.13;94042.50;4977525;28;7270;-63
2022/06/26 06:54:26;;;;;;;;;;;;;;;28.36;42.49;94041.78;4982641;28;8954;-63
2022/06/26 06:57:09;;;;;;;;;;;;;;;28.38;42.65;94039.94;4982707;28;7245;-63
2022/06/26 06:59:36;;;;;;;;;;;;;;;28.36;42.07;94039.75;4966357;28;9360;-63
2022/06/26 07:02:31;;;;;;;;;;;;;;;28.38;42.44;94044.00;4982293;28;7442;-63
2022/06/26 07:04:57;;;;;;;;;;;;;;;28.38;42.49;94035.72;4983450;28;7630;-63
2022/06/26 07:07:26;;;;;;;;;;;;;;;28.40;42.24;94036.66;4966844;28;7262;-63
2022/06/26 07:10:25;;;;;;;;;;;;;;;28.41;42.51;94026.31;4983198;28;7059;-63
2022/06/26 07:13:10;;;;;;;;;;;;;;;28.41;42.13;94032.59;4919403;29;8606;-63
2022/06/26 07:15:38;;;;;;;;;;;;;;;28.41;42.66;94035.38;4909654;29;7465;-63
2022/06/26 07:18:18;;;;;;;;;;;;;;;28.42;42.58;94045.16;4888129;29;7459;-62
2022/06/26 07:20:44;;;;;;;;;;;;;;;28.44;42.37;94048.13;4921549;29;7249;-63
2022/06/26 07:23:12;;;;;;;;;;;;;;;28.43;42.43;94052.16;4920633;29;7552;-63
2022/06/26 07:26:14;;;;;;;;;;;;;;;28.45;42.69;94054.41;4912529;29;7266;-63
2022/06/26 07:28:51;;;;;;;;;;;;;;;28.44;42.31;94061.22;4907280;29;9112;-63
2022/06/26 07:31:17;;;;;;;;;;;;;;;28.43;42.49;94063.22;4932738;29;7261;-62
2022/06/26 07:36:48;;;;;;;;;;;;;;;28.42;42.28;94070.06;4919478;29;7263;-62
2022/06/26 07:39:21;;;;;;;;;;;;;;;28.41;42.56;94074.09;4917810;29;7233;-62
2022/06/26 07:41:49;;;;;;;;;;;;;;;28.40;42.37;94069.84;4903082;29;7030;-62
2022/06/26 07:44:15;;;;;;;;;;;;;;;28.41;42.36;94068.56;4914593;29;7197;-62
2022/06/26 07:46:43;;;;;;;;;;;;;;;28.42;42.23;94072.06;4904013;29;9139;-62
2022/06/26 07:49:09;;;;;;;;;;;;;;;28.39;42.47;94071.13;4960396;28;7285;-62
2022/06/26 07:51:36;;;;;;;;;;;;;;;28.40;42.60;94074.63;4981727;28;6908;-62
2022/06/26 07:54:38;;;;;;;;;;;;;;;28.39;42.60;94073.91;4983461;28;7003;-63
2022/06/26 07:57:10;;;;;;;;;;;;;;;28.39;42.46;94062.81;4910672;29;9025;-63
2022/06/26 07:59:35;;;;;;;;;;;;;;;28.40;42.30;94063.56;4925939;29;8735;-63
2022/06/26 08:02:04;;;;;;;;;;;;;;;28.44;42.53;94078.56;4922037;29;7921;-63
2022/06/26 08:04:56;;;;;;;;;;;;;;;28.44;42.29;94077.81;4922725;29;7240;-63
2022/06/26 08:07:35;;;;;;;;;;;;;;;28.42;42.29;94080.38;4901141;29;8801;-62
2022/06/26 08:10:02;;;;;;;;;;;;;;;28.43;42.83;94077.06;4904948;29;8556;-62
2022/06/26 08:12:32;;;;;;;;;;;;;;;28.44;43.10;94084.09;4909619;29;9094;-64
2022/06/26 08:15:04;;;;;;;;;;;;;;;28.41;42.73;94076.88;4902715;29;7331;-62
2022/06/26 08:17:30;;;;;;;;;;;;;;;28.41;42.97;94076.88;4907564;29;8226;-62
2022/06/26 08:19:56;;;;;;;;;;;;;;;28.41;42.73;94076.88;4906436;29;9131;-62
2022/06/26 08:22:23;;;;;;;;;;;;;;;28.45;42.95;94082.09;4921053;28;7146;-63
2022/06/26 08:24:50;;;;;;;;;;;;;;;28.46;42.83;94094.63;4920572;28;7244;-63
2022/06/26 08:27:26;;;;;;;;;;;;;;;28.49;43.47;94090.78;4910078;29;8191;-63
2022/06/26 08:30:20;;;;;;;;;;;;;;;28.49;43.15;94083.25;4923330;29;7177;-63
2022/06/26 08:32:58;;;;;;;;;;;;;;;28.50;43.11;94089.50;4946438;28;7261;-63
2022/06/26 08:35:26;;;;;;;;;;;;;;;28.52;43.48;94087.69;4941466;28;9393;-63
2022/06/26 08:37:56;;;;;;;;;;;;;;;28.49;43.01;94091.53;4956965;28;9237;-63
2022/06/26 08:40:51;;;;;;;;;;;;;;;28.53;42.90;94094.72;4947619;28;6979;-64
2022/06/26 08:43:21;;;;;;;;;;;;;;;28.55;42.54;94094.91;4959616;28;7315;-63
2022/06/26 08:45:53;;;;;;;;;;;;;;;28.57;43.19;94103.44;4940450;28;7268;-63
2022/06/26 08:48:21;;;;;;;;;;;;;;;28.58;43.06;94093.84;4927498;28;9239;-64
2022/06/26 08:50:54;;;;;;;;;;;;;;;28.61;42.95;94092.78;4930835;28;7401;-63
2022/06/26 08:53:20;;;;;;;;;;;;;;;28.65;42.69;94098.72;4927983;28;7082;-63
2022/06/26 08:55:49;;;;;;;;;;;;;;;28.67;42.75;94093.41;4945537;28;7370;-64
2022/06/26 08:58:15;;;;;;;;;;;;;;;28.70;43.22;94094.34;4937785;28;6998;-64
2022/06/26 09:00:53;;;;;;;;;;;;;;;28.70;42.78;94088.81;4928877;28;7917;-64
2022/06/26 09:03:21;;;;;;;;;;;;;;;28.68;43.25;94088.63;4943544;28;7073;-64
2022/06/26 09:05:49;;;;;;;;;;;;;;;28.66;43.59;94091.94;4960729;28;7612;-64
2022/06/26 09:08:20;;;;;;;;;;;;;;;28.68;43.56;94089.38;4962633;28;9414;-64
2022/06/26 09:10:49;;;;;;;;;;;;;;;28.68;43.14;94094.16;4987770;28;7206;-64
2022/06/26 09:13:15;;;;;;;;;;;;;;;28.69;43.33;94090.09;4986213;28;8763;-64
2022/06/26 09:15:50;;;;;;;;;;;;;;;28.70;42.98;94088.81;4987801;28;7169;-65
2022/06/26 09:18:20;;;;;;;;;;;;;;;28.71;43.44;94093.09;4981079;28;9093;-64
2022/06/26 09:20:58;;;;;;;;;;;;;;;28.74;42.81;94098.28;4974383;28;7256;-64
2022/06/26 09:23:25;;;;;;;;;;;;;;;28.74;42.80;94095.50;4977628;28;7233;-64
2022/06/26 09:25:53;;;;;;;;;;;;;;;28.76;42.67;94095.72;4986984;28;9126;-64
2022/06/26 09:28:24;;;;;;;;;;;;;;;28.76;43.21;94089.41;4982739;28;7574;-63
2022/06/26 09:30:55;;;;;;;;;;;;;;;28.77;42.96;94085.38;4982381;28;7215;-63
2022/06/26 09:33:28;;;;;;;;;;;;;;;28.74;43.24;94078.91;4981173;28;9890;-64
2022/06/26 09:36:06;;;;;;;;;;;;;;;28.76;43.09;94073.56;4979904;28;9075;-63
2022/06/26 09:38:49;;;;;;;;;;;;;;;28.78;43.12;94084.09;4985141;28;7320;-63
2022/06/26 09:41:15;;;;;;;;;;;;;;;28.78;43.42;94076.53;4986061;28;7287;-63
2022/06/26 09:43:44;;;;;;;;;;;;;;;28.78;43.65;94075.78;4981900;28;7451;-63
2022/06/26 09:46:16;;;;;;;;;;;;;;;28.77;43.06;94066.75;4988810;28;7129;-63
2022/06/26 09:48:43;;;;;;;;;;;;;;;28.78;42.96;94073.75;4977675;28;9032;-63
2022/06/26 09:51:18;;;;;;;;;;;;;;;28.78;43.25;94073.00;4967010;28;9691;-64
2022/06/26 09:54:12;;;;;;;;;;;;;;;28.77;43.06;94077.09;4978828;28;9059;-63
2022/06/26 09:56:59;;;;;;;;;;;;;;;28.78;43.37;94075.78;4932142;28;7437;-63
2022/06/26 09:59:41;;;;;;;;;;;;;;;28.77;43.00;94066.00;4939728;28;9429;-63
2022/06/26 10:08:08;;;;;;;;;;;;;;;28.81;43.50;94071.94;4947703;28;7350;-63
2022/06/26 10:10:47;;;;;;;;;;;;;;;28.83;43.74;94077.69;4945283;28;9380;-63
2022/06/26 10:13:17;;;;;;;;;;;;;;;28.83;43.82;94086.75;4931007;28;7260;-63
2022/06/26 10:16:04;;;;;;;;;;;;;;;28.84;43.54;94079.19;4938985;28;7231;-63
2022/06/26 10:18:51;;;;;;;;;;;;;;;28.84;43.18;94071.59;4934749;28;8961;-63
2022/06/26 10:21:20;;;;;;;;;;;;;;;28.84;43.04;94079.19;4931576;28;7138;-63
2022/06/26 10:23:46;;;;;;;;;;;;;;;28.83;43.08;94072.91;4924499;28;7000;-63
2022/06/26 10:26:18;;;;;;;;;;;;;;;28.84;43.01;94073.66;4936371;28;8828;-63
2022/06/26 10:29:07;;;;;;;;;;;;;;;28.82;43.25;94068.63;4923152;28;7312;-63
2022/06/26 10:31:49;;;;;;;;;;;;;;;28.84;43.39;94068.84;4943948;28;8987;-63
2022/06/26 10:34:15;;;;;;;;;;;;;;;28.85;43.14;94069.59;4964588;28;8745;-63
2022/06/26 10:36:42;;;;;;;;;;;;;;;28.87;43.15;94067.00;4977521;28;8738;-63
2022/06/26 10:39:21;;;;;;;;;;;;;;;28.85;43.29;94067.56;4986872;28;9134;-63
2022/06/26 10:44:45;;;;;;;;;;;;;;;28.88;43.52;94065.75;4970094;28;8761;-63
2022/06/26 10:47:18;;;;;;;;;;;;;;;28.88;43.53;94069.22;4983501;28;9006;-64
2022/06/26 10:49:51;;;;;;;;;;;;;;;28.89;43.35;94064.44;4962360;28;8243;-63
2022/06/26 10:52:51;;;;;;;;;;;;;;;28.90;43.09;94061.16;4980700;28;9439;-63
2022/06/26 10:55:19;;;;;;;;;;;;;;;28.91;43.09;94056.34;4984515;28;7334;-63
2022/06/26 10:57:49;;;;;;;;;;;;;;;28.91;43.34;94054.31;4981351;28;9138;-63
2022/06/26 11:00:16;;;;;;;;;;;;;;;28.92;42.90;94055.06;4980593;28;9182;-63
2022/06/26 11:02:45;;;;;;;;;;;;;;;28.93;43.43;94051.00;4988492;28;9056;-63
2022/06/26 11:05:16;;;;;;;;;;;;;;;28.92;43.48;94044.75;4984745;28;7659;-63
2022/06/26 11:08:06;;;;;;;;;;;;;;;28.94;43.01;94042.19;4983342;28;7282;-63
2022/06/26 11:10:48;;;;;;;;;;;;;;;28.96;43.93;94042.38;4987349;28;7829;-63
2022/06/26 11:13:17;;;;;;;;;;;;;;;28.96;43.38;94045.13;4982572;28;9047;-63
2022/06/26 11:16:17;;;;;;;;;;;;;;;28.98;43.29;94034.25;4984385;28;9197;-63
2022/06/26 11:18:54;;;;;;;;;;;;;;;28.99;43.46;94026.72;4910311;29;7262;-63
2022/06/26 11:21:21;;;;;;;;;;;;;;;29.01;43.65;94033.16;4918325;29;7249;-63
2022/06/26 11:24:01;;;;;;;;;;;;;;;29.02;43.67;94023.59;4906738;29;7010;-63
2022/06/26 11:26:48;;;;;;;;;;;;;;;29.04;43.22;94023.03;4924392;29;9164;-63
2022/06/26 11:29:14;;;;;;;;;;;;;;;29.04;43.56;94023.78;4907253;29;7266;-63
2022/06/26 11:31:53;;;;;;;;;;;;;;;29.05;43.11;94033.59;4917318;29;9060;-64
2022/06/26 11:34:28;;;;;;;;;;;;;;;29.07;44.10;94028.25;4920038;29;7284;-63
2022/06/26 11:36:58;;;;;;;;;;;;;;;29.06;44.82;94028.78;4920903;29;9416;-63
2022/06/26 11:39:49;;;;;;;;;;;;;;;29.17;43.74;94028.50;4929684;29;7298;-61
2022/06/26 11:42:22;;;;;;;;;;;;;;;29.30;43.80;94011.78;4915852;29;9146;-62
2022/06/26 11:44:53;;;;;;;;;;;;;;;29.38;42.88;94011.84;4909581;29;8739;-62
2022/06/26 11:47:49;;;;;;;;;;;;;;;29.36;43.67;94006.84;4918664;29;7220;-61
2022/06/26 11:50:36;;;;;;;;;;;;;;;29.35;43.39;94013.69;4905857;29;7272;-62
2022/06/26 11:53:21;;;;;;;;;;;;;;;29.35;43.33;94010.16;4907845;29;7489;-62
2022/06/26 11:55:54;;;;;;;;;;;;;;;29.34;42.95;93997.63;4930906;28;7039;-63
2022/06/26 11:58:32;;;;;;;;;;;;;;;29.34;43.15;94000.38;4948472;28;7118;-63
2022/06/26 12:01:17;;;;;;;;;;;;;;;29.33;42.73;93996.13;4938336;28;7084;-62
2022/06/26 12:03:52;;;;;;;;;;;;;;;29.31;43.69;93999.44;4951604;28;7546;-62
2022/06/26 12:06:40;;;;;;;;;;;;;;;29.32;43.08;94000.91;4929802;28;7667;-62
2022/06/26 12:09:23;;;;;;;;;;;;;;;29.32;43.27;93989.84;4948629;28;9118;-62
2022/06/26 12:11:58;;;;;;;;;;;;;;;29.32;43.45;93989.09;4940355;28;7734;-62
2022/06/26 12:14:33;;;;;;;;;;;;;;;29.32;43.47;93986.34;4948164;28;8846;-62
2022/06/26 12:17:07;;;;;;;;;;;;;;;29.32;43.71;93989.09;4943597;28;6987;-63
2022/06/26 12:19:48;;;;;;;;;;;;;;;29.32;44.00;93984.28;4942817;28;7056;-63
2022/06/26 12:22:24;;;;;;;;;;;;;;;29.32;43.71;93986.34;4944477;28;7297;-62
2022/06/26 12:25:33;;;;;;;;;;;;;;;29.33;43.13;93987.81;4951399;28;7241;-63
2022/06/26 12:28:04;;;;;;;;;;;;;;;29.33;43.69;93979.50;4985097;28;9421;-63
2022/06/26 12:30:55;;;;;;;;;;;;;;;29.35;43.63;93976.91;4987583;28;7222;-62
2022/06/26 12:33:25;;;;;;;;;;;;;;;29.34;43.37;93967.88;4969426;28;7330;-62
2022/06/26 12:36:17;;;;;;;;;;;;;;;29.35;43.23;93955.50;4988355;28;7182;-62
2022/06/26 12:39:11;;;;;;;;;;;;;;;29.36;43.33;93956.97;4985598;28;7162;-62
2022/06/26 12:41:44;;;;;;;;;;;;;;;29.36;43.99;93956.25;4933039;28;7330;-62
2022/06/26 12:44:10;;;;;;;;;;;;;;;29.36;43.77;93956.97;4933903;29;8934;-63
2022/06/26 12:46:36;;;;;;;;;;;;;;;29.37;44.23;93955.69;4933817;29;6979;-62
2022/06/26 12:49:17;;;;;;;;;;;;;;;29.36;43.33;93953.47;4933364;28;8810;-62
2022/06/26 12:51:55;;;;;;;;;;;;;;;29.37;43.38;93950.16;4916309;29;9093;-62
2022/06/26 12:54:52;;;;;;;;;;;;;;;29.38;43.64;93951.66;4930876;29;7231;-62
2022/06/26 12:57:18;;;;;;;;;;;;;;;29.37;43.39;93946.63;4859979;29;9339;-62
2022/06/26 12:59:44;;;;;;;;;;;;;;;29.39;43.82;93949.59;4859806;29;7026;-62
2022/06/26 13:02:23;;;;;;;;;;;;;;;29.39;42.93;93955.88;4859576;29;7251;-62
2022/06/26 13:05:11;;;;;;;;;;;;;;;29.39;43.99;93946.84;4876721;29;8733;-62
2022/06/26 13:07:39;;;;;;;;;;;;;;;29.40;43.69;93945.56;4875279;29;8902;-62
2022/06/26 13:10:05;;;;;;;;;;;;;;;29.42;43.29;93946.50;4873470;29;7221;-63
2022/06/26 13:12:46;;;;;;;;;;;;;;;29.42;43.72;93940.22;4861137;29;9166;-62
2022/06/26 13:15:13;;;;;;;;;;;;;;;29.43;43.75;93941.69;4875531;29;7303;-62
2022/06/26 13:17:50;;;;;;;;;;;;;;;29.42;43.67;93935.41;4882971;29;9125;-62
2022/06/26 13:20:18;;;;;;;;;;;;;;;29.45;43.35;93941.91;4906394;29;9027;-62
2022/06/26 13:22:48;;;;;;;;;;;;;;;29.45;44.15;93925.28;4914214;29;7074;-62
2022/06/26 13:25:35;;;;;;;;;;;;;;;29.46;43.38;93924.72;4906563;29;8839;-62
2022/06/26 13:28:20;;;;;;;;;;;;;;;29.48;44.02;93929.69;4905596;29;7167;-62
2022/06/26 13:31:02;;;;;;;;;;;;;;;29.49;43.73;93920.09;4896197;29;9054;-62
2022/06/26 13:33:30;;;;;;;;;;;;;;;29.49;42.92;93912.53;4930679;28;7239;-62
2022/06/26 13:35:57;;;;;;;;;;;;;;;29.50;43.50;93929.88;4991159;28;9009;-62
2022/06/26 13:38:28;;;;;;;;;;;;;;;29.50;43.60;93924.34;4989337;28;7194;-62
2022/06/26 13:41:01;;;;;;;;;;;;;;;29.50;43.36;93924.34;4972864;28;7312;-62
2022/06/26 13:43:27;;;;;;;;;;;;;;;29.51;43.39;93929.38;4984413;28;9198;-62
2022/06/26 13:45:53;;;;;;;;;;;;;;;29.52;42.85;93921.78;4984988;28;7384;-62